Heide Moran — WYN6273 — position and weather

sailwx.info

Track history (hours):
 
Tides and Currents Weather Stations Pressure Air Temp Water Temp Dewpoint Dewpoint Depression Visibility Wind Speed Wind Dir Waves Ship Positions

Heide Moran

Owner: MORAN TOWING CORPORATION, New Canaan, CT. More information available from US FCC via Universal Licensing System and Coast Guard Vessel Documentation Center.

Last reported at 2018-May-01 04:29 UTC. Time now 2018-May-20 15:28 UTC.
Position N 27°44' W 082°32'.
Warning: this ship's position is 19 days out of date.

Length 38 m; draft 5 m.

Type: Tow > 200 m length. MMSI: 368674000.

Date/timePositionNaut miles runAvg speedWind from/ knotsBaromVisibWave heightAir tempDewpointWater temp
2018-May-01 04:29N 27°44' W 082°32'3 6.7
2018-May-01 04:00N 27°47' W 082°30'4 6.9
2018-May-01 03:29N 27°49' W 082°27'4 7.4
2018-May-01 03:00N 27°53' W 082°26'2 4.7
2018-May-01 02:29N 27°55' W 082°25'0 0.0
2018-May-01 01:59N 27°55' W 082°25'0 0.0
2018-May-01 01:29N 27°55' W 082°25'0 0.0
2018-May-01 00:59N 27°55' W 082°25'0 0.0
2018-May-01 00:29N 27°55' W 082°25'0 0.0
2018-Apr-30 23:59N 27°55' W 082°25'0 0.0
2018-Apr-30 23:23N 27°55' W 082°25'0 0.0
2018-Apr-30 22:59N 27°55' W 082°25'0 0.0
2018-Apr-30 22:29N 27°55' W 082°25'0 0.0
2018-Apr-30 21:59N 27°55' W 082°25'0 0.0
2018-Apr-30 21:29N 27°55' W 082°25'0 0.0
2018-Apr-30 20:59N 27°55' W 082°25'0 0.0
2018-Apr-30 20:29N 27°55' W 082°25'0 0.0
2018-Apr-30 19:59N 27°55' W 082°25'0 0.0
2018-Apr-30 19:29N 27°55' W 082°25'0 0.0
2018-Apr-30 18:59N 27°55' W 082°25'0 0.0
2018-Apr-30 18:29N 27°55' W 082°25'0 0.0
2018-Apr-30 17:59N 27°55' W 082°25'0 0.0
2018-Apr-30 17:29N 27°55' W 082°25'0 0.0
2018-Apr-30 16:59N 27°55' W 082°25'0 0.0
2018-Apr-30 16:29N 27°55' W 082°25'0 0.0
2018-Apr-30 15:59N 27°55' W 082°25'0 0.0
2018-Apr-30 15:29N 27°55' W 082°25'0 0.0
2018-Apr-30 14:59N 27°55' W 082°25'0 0.0
2018-Apr-30 14:29N 27°55' W 082°25'0 0.0
2018-Apr-30 13:59N 27°55' W 082°25'0 0.0
2018-Apr-30 13:29N 27°55' W 082°25'0 0.0
2018-Apr-30 12:59N 27°55' W 082°25'0 0.0
2018-Apr-30 12:29N 27°55' W 082°25'0 0.0
2018-Apr-30 11:59N 27°55' W 082°25'0 0.0
2018-Apr-30 11:29N 27°55' W 082°25'0 0.0
2018-Apr-30 10:59N 27°55' W 082°25'0 0.0
2018-Apr-30 10:29N 27°55' W 082°25'0 0.0
2018-Apr-30 09:59N 27°55' W 082°25'0 0.0
2018-Apr-30 09:26N 27°55' W 082°25'0 0.0
2018-Apr-30 08:59N 27°55' W 082°25'0 0.0
2018-Apr-30 08:29N 27°55' W 082°25'0 0.0
2018-Apr-30 07:59N 27°55' W 082°25'0 0.0
2018-Apr-30 07:29N 27°55' W 082°25'0 0.0
2018-Apr-30 06:59N 27°55' W 082°25'0 0.0
2018-Apr-30 06:29N 27°55' W 082°25'0 0.0
2018-Apr-30 05:59N 27°55' W 082°25'0 0.0
2018-Apr-30 05:29N 27°55' W 082°25'0 0.0
2018-Apr-30 04:59N 27°55' W 082°25'0 0.0
2018-Apr-30 04:29N 27°55' W 082°25'0 0.0
2018-Apr-30 03:59N 27°55' W 082°25'0 0.0
2018-Apr-30 03:29N 27°55' W 082°25'0 0.0
2018-Apr-30 02:59N 27°55' W 082°25'0 0.0
2018-Apr-30 02:29N 27°55' W 082°25'0 0.0
2018-Apr-30 01:59N 27°55' W 082°25'0 0.0
2018-Apr-30 01:29N 27°55' W 082°25'0 0.0
2018-Apr-30 00:59N 27°55' W 082°25'0 0.0
2018-Apr-30 00:29N 27°55' W 082°25'0 0.0
2018-Apr-29 23:58N 27°55' W 082°25'0 0.1
2018-Apr-29 23:31N 27°55' W 082°25'0 0.0
2018-Apr-29 23:00N 27°55' W 082°25'1 1.0
2018-Apr-29 22:30N 27°55' W 082°26'4 7.3
2018-Apr-29 22:00N 27°51' W 082°27'6 7.5
2018-Apr-29 21:12N 27°47' W 082°31'2 7.6
2018-Apr-29 21:00N 27°45' W 082°31'  
Track history (hours):
 
Tides and Currents Weather Stations Pressure Air Temp Water Temp Dewpoint Dewpoint Depression Visibility Wind Speed Wind Dir Waves Ship Positions

Heide Moran

Owner: MORAN TOWING CORPORATION, New Canaan, CT. More information available from US FCC via Universal Licensing System and Coast Guard Vessel Documentation Center.

Last reported at 2018-May-01 04:29 UTC. Time now 2018-May-20 15:28 UTC.
Position N 27°44' W 082°32'.
Warning: this ship's position is 19 days out of date.

Length 38 m; draft 5 m.

Type: Tow > 200 m length. MMSI: 368674000.

Date/timePositionNaut miles runAvg speedWind from/ knotsBaromVisibWave heightAir tempDewpointWater temp
2018-May-01 04:29N 27°44' W 082°32'3 6.7
2018-May-01 04:00N 27°47' W 082°30'4 6.9
2018-May-01 03:29N 27°49' W 082°27'4 7.4
2018-May-01 03:00N 27°53' W 082°26'2 4.7
2018-May-01 02:29N 27°55' W 082°25'0 0.0
2018-May-01 01:59N 27°55' W 082°25'0 0.0
2018-May-01 01:29N 27°55' W 082°25'0 0.0
2018-May-01 00:59N 27°55' W 082°25'0 0.0
2018-May-01 00:29N 27°55' W 082°25'0 0.0
2018-Apr-30 23:59N 27°55' W 082°25'0 0.0
2018-Apr-30 23:23N 27°55' W 082°25'0 0.0
2018-Apr-30 22:59N 27°55' W 082°25'0 0.0
2018-Apr-30 22:29N 27°55' W 082°25'0 0.0
2018-Apr-30 21:59N 27°55' W 082°25'0 0.0
2018-Apr-30 21:29N 27°55' W 082°25'0 0.0
2018-Apr-30 20:59N 27°55' W 082°25'0 0.0
2018-Apr-30 20:29N 27°55' W 082°25'0 0.0
2018-Apr-30 19:59N 27°55' W 082°25'0 0.0
2018-Apr-30 19:29N 27°55' W 082°25'0 0.0
2018-Apr-30 18:59N 27°55' W 082°25'0 0.0
2018-Apr-30 18:29N 27°55' W 082°25'0 0.0
2018-Apr-30 17:59N 27°55' W 082°25'0 0.0
2018-Apr-30 17:29N 27°55' W 082°25'0 0.0
2018-Apr-30 16:59N 27°55' W 082°25'0 0.0
2018-Apr-30 16:29N 27°55' W 082°25'0 0.0
2018-Apr-30 15:59N 27°55' W 082°25'0 0.0
2018-Apr-30 15:29N 27°55' W 082°25'0 0.0
2018-Apr-30 14:59N 27°55' W 082°25'0 0.0
2018-Apr-30 14:29N 27°55' W 082°25'0 0.0
2018-Apr-30 13:59N 27°55' W 082°25'0 0.0
2018-Apr-30 13:29N 27°55' W 082°25'0 0.0
2018-Apr-30 12:59N 27°55' W 082°25'0 0.0
2018-Apr-30 12:29N 27°55' W 082°25'0 0.0
2018-Apr-30 11:59N 27°55' W 082°25'0 0.0
2018-Apr-30 11:29N 27°55' W 082°25'0 0.0
2018-Apr-30 10:59N 27°55' W 082°25'0 0.0
2018-Apr-30 10:29N 27°55' W 082°25'0 0.0
2018-Apr-30 09:59N 27°55' W 082°25'0 0.0
2018-Apr-30 09:26N 27°55' W 082°25'0 0.0
2018-Apr-30 08:59N 27°55' W 082°25'0 0.0
2018-Apr-30 08:29N 27°55' W 082°25'0 0.0
2018-Apr-30 07:59N 27°55' W 082°25'0 0.0
2018-Apr-30 07:29N 27°55' W 082°25'0 0.0
2018-Apr-30 06:59N 27°55' W 082°25'0 0.0
2018-Apr-30 06:29N 27°55' W 082°25'0 0.0
2018-Apr-30 05:59N 27°55' W 082°25'0 0.0
2018-Apr-30 05:29N 27°55' W 082°25'0 0.0
2018-Apr-30 04:59N 27°55' W 082°25'0 0.0
2018-Apr-30 04:29N 27°55' W 082°25'0 0.0
2018-Apr-30 03:59N 27°55' W 082°25'0 0.0
2018-Apr-30 03:29N 27°55' W 082°25'0 0.0
2018-Apr-30 02:59N 27°55' W 082°25'0 0.0
2018-Apr-30 02:29N 27°55' W 082°25'0 0.0
2018-Apr-30 01:59N 27°55' W 082°25'0 0.0
2018-Apr-30 01:29N 27°55' W 082°25'0 0.0
2018-Apr-30 00:59N 27°55' W 082°25'0 0.0
2018-Apr-30 00:29N 27°55' W 082°25'0 0.0
2018-Apr-29 23:58N 27°55' W 082°25'0 0.1
2018-Apr-29 23:31N 27°55' W 082°25'0 0.0
2018-Apr-29 23:00N 27°55' W 082°25'1 1.0
2018-Apr-29 22:30N 27°55' W 082°26'4 7.3
2018-Apr-29 22:00N 27°51' W 082°27'6 7.5
2018-Apr-29 21:12N 27°47' W 082°31'2 7.6
2018-Apr-29 21:00N 27°45' W 082°31'  

Dump ship's entire track history